KBMG/BMG METAR and TAF weather

Enter ICAO airport designator
Station Type Date Time Source
KBMG METAR 2021/09/24 02:53 UTC NOAA

KBMG 240253Z AUTO 00000KT 10SM CLR 09/07 A3003 RMK AO2 SLP168 T00940072 51011


Station Type Date Time Source
KBMG Decoded METAR 2021/09/24 02:53 UTC NOAA

MONROE COUNTY AIRPORT, IN, United States (KBMG) 39-09N 086-37W 257M
Sep 23, 2021 - 10:53 PM EDT / 2021.09.24 0253 UTC
Wind: Calm:0
Visibility: 10 mile(s):0
Sky conditions: clear
Temperature: 48.9 F (9.4 C)
Dew Point: 45.0 F (7.2 C)
Relative Humidity: 86%
Pressure (altimeter): 30.03 in. Hg (1016 hPa)
Pressure tendency: 0.03 inches (1.1 hPa) higher than three hours ago
ob: KBMG 240253Z AUTO 00000KT 10SM CLR 09/07 A3003 RMK AO2 SLP168 T00940072 51011
cycle: 3

Station Type Date Time Source
KBMG TAF 2021/09/23 18:42 UTC NOAA

TAF KBMG 231740Z 2318/2418 28012G18KT P6SM FEW250
FM232300 29006KT P6SM SKC

Example: see airport list